sensor_id;sensor_type;location;lat;lon;timestamp;P1;durP1;ratioP1;P2;durP2;ratioP2
5807;SDS011;2930;42.678;23.312;2022-09-25T00:00:39;5.78;;;4.93;;
5807;SDS011;2930;42.678;23.312;2022-09-25T00:03:06;13.63;;;5.13;;
5807;SDS011;2930;42.678;23.312;2022-09-25T00:05:34;5.32;;;4.72;;
5807;SDS011;2930;42.678;23.312;2022-09-25T00:08:00;8.73;;;5.63;;
5807;SDS011;2930;42.678;23.312;2022-09-25T00:10:27;5.53;;;4.70;;
5807;SDS011;2930;42.678;23.312;2022-09-25T00:12:54;5.85;;;5.20;;
5807;SDS011;2930;42.678;23.312;2022-09-25T00:15:20;7.05;;;4.65;;
5807;SDS011;2930;42.678;23.312;2022-09-25T00:17:46;4.55;;;4.00;;
5807;SDS011;2930;42.678;23.312;2022-09-25T00:20:12;5.05;;;4.50;;
5807;SDS011;2930;42.678;23.312;2022-09-25T00:22:40;7.60;;;4.85;;
5807;SDS011;2930;42.678;23.312;2022-09-25T00:25:08;7.40;;;5.28;;
5807;SDS011;2930;42.678;23.312;2022-09-25T00:27:39;4.70;;;4.00;;
5807;SDS011;2930;42.678;23.312;2022-09-25T00:30:07;6.47;;;4.73;;
5807;SDS011;2930;42.678;23.312;2022-09-25T00:32:33;4.43;;;4.05;;
5807;SDS011;2930;42.678;23.312;2022-09-25T00:34:59;5.13;;;4.67;;
5807;SDS011;2930;42.678;23.312;2022-09-25T00:37:25;6.57;;;5.23;;
5807;SDS011;2930;42.678;23.312;2022-09-25T00:39:54;6.23;;;4.53;;
5807;SDS011;2930;42.678;23.312;2022-09-25T00:42:21;6.13;;;4.63;;
5807;SDS011;2930;42.678;23.312;2022-09-25T00:47:23;5.17;;;4.43;;
5807;SDS011;2930;42.678;23.312;2022-09-25T00:50:11;4.17;;;3.77;;
5807;SDS011;2930;42.678;23.312;2022-09-25T00:52:53;6.00;;;4.20;;
5807;SDS011;2930;42.678;23.312;2022-09-25T00:55:22;4.03;;;3.67;;
5807;SDS011;2930;42.678;23.312;2022-09-25T00:57:49;4.40;;;4.00;;
5807;SDS011;2930;42.678;23.312;2022-09-25T01:00:18;5.03;;;4.07;;
5807;SDS011;2930;42.678;23.312;2022-09-25T01:02:46;7.23;;;4.33;;
5807;SDS011;2930;42.678;23.312;2022-09-25T01:05:20;6.73;;;4.97;;
5807;SDS011;2930;42.678;23.312;2022-09-25T01:07:48;4.43;;;4.13;;
5807;SDS011;2930;42.678;23.312;2022-09-25T01:10:16;5.67;;;4.83;;
5807;SDS011;2930;42.678;23.312;2022-09-25T01:12:44;5.13;;;4.20;;
5807;SDS011;2930;42.678;23.312;2022-09-25T01:15:13;4.43;;;4.03;;
5807;SDS011;2930;42.678;23.312;2022-09-25T01:17:42;4.40;;;4.00;;
5807;SDS011;2930;42.678;23.312;2022-09-25T01:40:20;3.73;;;3.30;;
5807;SDS011;2930;42.678;23.312;2022-09-25T01:42:56;4.30;;;4.00;;
5807;SDS011;2930;42.678;23.312;2022-09-25T01:45:51;4.40;;;4.00;;
5807;SDS011;2930;42.678;23.312;2022-09-25T01:48:25;5.57;;;5.17;;
5807;SDS011;2930;42.678;23.312;2022-09-25T01:53:31;5.80;;;4.90;;
5807;SDS011;2930;42.678;23.312;2022-09-25T01:56:05;5.77;;;4.63;;
5807;SDS011;2930;42.678;23.312;2022-09-25T01:58:42;5.27;;;4.30;;
5807;SDS011;2930;42.678;23.312;2022-09-25T02:01:22;5.13;;;4.70;;
5807;SDS011;2930;42.678;23.312;2022-09-25T02:04:12;5.37;;;4.70;;
5807;SDS011;2930;42.678;23.312;2022-09-25T02:06:43;4.80;;;4.00;;
5807;SDS011;2930;42.678;23.312;2022-09-25T02:09:16;8.13;;;4.27;;
5807;SDS011;2930;42.678;23.312;2022-09-25T02:11:50;5.77;;;4.47;;
5807;SDS011;2930;42.678;23.312;2022-09-25T02:14:26;4.87;;;4.20;;
5807;SDS011;2930;42.678;23.312;2022-09-25T02:17:04;5.57;;;4.07;;
5807;SDS011;2930;42.678;23.312;2022-09-25T02:19:35;5.20;;;4.70;;
5807;SDS011;2930;42.678;23.312;2022-09-25T02:22:24;6.63;;;4.70;;
5807;SDS011;2930;42.678;23.312;2022-09-25T02:25:09;4.97;;;3.90;;
5807;SDS011;2930;42.678;23.312;2022-09-25T02:27:42;4.17;;;3.63;;
5807;SDS011;2930;42.678;23.312;2022-09-25T02:30:08;4.47;;;4.07;;
5807;SDS011;2930;42.678;23.312;2022-09-25T02:32:35;4.53;;;3.83;;
5807;SDS011;2930;42.678;23.312;2022-09-25T02:35:01;4.63;;;4.23;;
5807;SDS011;2930;42.678;23.312;2022-09-25T02:37:28;4.87;;;4.37;;
5807;SDS011;2930;42.678;23.312;2022-09-25T02:39:55;5.13;;;3.80;;
5807;SDS011;2930;42.678;23.312;2022-09-25T02:53:22;5.33;;;4.20;;
5807;SDS011;2930;42.678;23.312;2022-09-25T02:56:13;4.27;;;3.83;;
5807;SDS011;2930;42.678;23.312;2022-09-25T02:58:53;3.40;;;3.10;;
5807;SDS011;2930;42.678;23.312;2022-09-25T03:01:23;3.30;;;3.10;;
5807;SDS011;2930;42.678;23.312;2022-09-25T03:03:52;4.40;;;4.00;;
5807;SDS011;2930;42.678;23.312;2022-09-25T03:06:22;4.47;;;4.07;;
5807;SDS011;2930;42.678;23.312;2022-09-25T03:08:50;4.17;;;3.87;;
5807;SDS011;2930;42.678;23.312;2022-09-25T03:11:21;5.57;;;4.13;;
5807;SDS011;2930;42.678;23.312;2022-09-25T03:13:55;4.80;;;4.27;;
5807;SDS011;2930;42.678;23.312;2022-09-25T03:16:31;5.17;;;3.97;;
5807;SDS011;2930;42.678;23.312;2022-09-25T03:19:15;4.33;;;3.93;;
5807;SDS011;2930;42.678;23.312;2022-09-25T03:21:43;5.10;;;4.03;;
5807;SDS011;2930;42.678;23.312;2022-09-25T03:24:10;4.43;;;4.00;;
5807;SDS011;2930;42.678;23.312;2022-09-25T03:26:35;4.33;;;3.90;;
5807;SDS011;2930;42.678;23.312;2022-09-25T03:29:01;6.17;;;4.00;;
5807;SDS011;2930;42.678;23.312;2022-09-25T03:31:28;4.23;;;3.93;;
5807;SDS011;2930;42.678;23.312;2022-09-25T03:33:54;5.87;;;3.27;;
5807;SDS011;2930;42.678;23.312;2022-09-25T03:36:21;3.90;;;3.50;;
5807;SDS011;2930;42.678;23.312;2022-09-25T03:38:50;3.40;;;3.10;;
5807;SDS011;2930;42.678;23.312;2022-09-25T03:41:20;4.20;;;3.13;;
5807;SDS011;2930;42.678;23.312;2022-09-25T03:43:47;3.47;;;3.17;;
5807;SDS011;2930;42.678;23.312;2022-09-25T03:46:15;3.37;;;3.07;;
5807;SDS011;2930;42.678;23.312;2022-09-25T03:48:46;4.40;;;3.23;;
5807;SDS011;2930;42.678;23.312;2022-09-25T03:51:12;3.47;;;3.20;;
5807;SDS011;2930;42.678;23.312;2022-09-25T03:53:38;4.20;;;3.80;;
5807;SDS011;2930;42.678;23.312;2022-09-25T03:56:08;4.23;;;2.87;;
5807;SDS011;2930;42.678;23.312;2022-09-25T03:58:36;3.50;;;3.27;;
5807;SDS011;2930;42.678;23.312;2022-09-25T04:01:03;3.47;;;3.27;;
5807;SDS011;2930;42.678;23.312;2022-09-25T04:03:30;5.63;;;3.10;;
5807;SDS011;2930;42.678;23.312;2022-09-25T04:05:58;4.63;;;3.70;;
5807;SDS011;2930;42.678;23.312;2022-09-25T04:08:27;3.10;;;2.90;;
5807;SDS011;2930;42.678;23.312;2022-09-25T04:10:53;4.07;;;3.50;;
5807;SDS011;2930;42.678;23.312;2022-09-25T04:13:23;4.30;;;3.37;;
5807;SDS011;2930;42.678;23.312;2022-09-25T04:15:50;3.50;;;3.00;;
5807;SDS011;2930;42.678;23.312;2022-09-25T04:18:16;6.00;;;3.60;;
5807;SDS011;2930;42.678;23.312;2022-09-25T04:20:42;3.93;;;3.63;;
5807;SDS011;2930;42.678;23.312;2022-09-25T04:23:08;4.20;;;3.80;;
5807;SDS011;2930;42.678;23.312;2022-09-25T04:25:33;2.93;;;2.73;;
5807;SDS011;2930;42.678;23.312;2022-09-25T04:27:59;3.77;;;3.47;;
5807;SDS011;2930;42.678;23.312;2022-09-25T04:30:26;3.93;;;2.73;;
5807;SDS011;2930;42.678;23.312;2022-09-25T04:32:52;3.50;;;3.20;;
5807;SDS011;2930;42.678;23.312;2022-09-25T04:35:37;3.53;;;3.33;;
5807;SDS011;2930;42.678;23.312;2022-09-25T04:38:04;3.20;;;2.90;;
5807;SDS011;2930;42.678;23.312;2022-09-25T04:40:30;3.30;;;3.13;;
5807;SDS011;2930;42.678;23.312;2022-09-25T04:42:56;3.10;;;2.97;;
5807;SDS011;2930;42.678;23.312;2022-09-25T04:45:23;4.33;;;3.93;;
5807;SDS011;2930;42.678;23.312;2022-09-25T04:47:51;3.60;;;3.17;;
5807;SDS011;2930;42.678;23.312;2022-09-25T04:50:18;3.50;;;3.20;;
5807;SDS011;2930;42.678;23.312;2022-09-25T04:52:44;5.03;;;3.50;;
5807;SDS011;2930;42.678;23.312;2022-09-25T04:55:10;4.37;;;3.97;;
5807;SDS011;2930;42.678;23.312;2022-09-25T04:57:36;3.63;;;3.33;;
5807;SDS011;2930;42.678;23.312;2022-09-25T05:00:03;3.33;;;3.10;;
5807;SDS011;2930;42.678;23.312;2022-09-25T05:02:30;4.00;;;3.70;;
5807;SDS011;2930;42.678;23.312;2022-09-25T05:04:55;4.33;;;3.50;;
5807;SDS011;2930;42.678;23.312;2022-09-25T05:07:21;5.10;;;4.30;;
5807;SDS011;2930;42.678;23.312;2022-09-25T05:09:47;6.43;;;4.27;;
5807;SDS011;2930;42.678;23.312;2022-09-25T05:12:12;4.30;;;3.93;;
5807;SDS011;2930;42.678;23.312;2022-09-25T05:14:38;4.57;;;4.13;;
5807;SDS011;2930;42.678;23.312;2022-09-25T05:17:06;6.00;;;3.63;;
5807;SDS011;2930;42.678;23.312;2022-09-25T05:19:32;4.80;;;3.77;;
5807;SDS011;2930;42.678;23.312;2022-09-25T05:21:59;3.60;;;3.37;;
5807;SDS011;2930;42.678;23.312;2022-09-25T05:24:25;3.53;;;3.33;;
5807;SDS011;2930;42.678;23.312;2022-09-25T05:26:51;4.20;;;3.90;;
5807;SDS011;2930;42.678;23.312;2022-09-25T05:29:16;3.33;;;3.20;;
5807;SDS011;2930;42.678;23.312;2022-09-25T05:31:42;3.63;;;3.33;;
5807;SDS011;2930;42.678;23.312;2022-09-25T05:34:11;4.33;;;3.90;;
5807;SDS011;2930;42.678;23.312;2022-09-25T05:36:37;4.43;;;3.80;;
5807;SDS011;2930;42.678;23.312;2022-09-25T05:39:03;5.00;;;3.63;;
5807;SDS011;2930;42.678;23.312;2022-09-25T05:41:28;4.07;;;3.67;;
5807;SDS011;2930;42.678;23.312;2022-09-25T05:43:55;3.10;;;2.90;;
5807;SDS011;2930;42.678;23.312;2022-09-25T05:46:22;5.73;;;3.37;;
5807;SDS011;2930;42.678;23.312;2022-09-25T05:48:47;11.60;;;3.07;;
5807;SDS011;2930;42.678;23.312;2022-09-25T05:51:13;4.10;;;3.70;;
5807;SDS011;2930;42.678;23.312;2022-09-25T05:53:39;4.20;;;3.10;;
5807;SDS011;2930;42.678;23.312;2022-09-25T05:56:05;4.47;;;3.70;;
5807;SDS011;2930;42.678;23.312;2022-09-25T05:58:32;3.20;;;3.00;;
5807;SDS011;2930;42.678;23.312;2022-09-25T06:00:59;3.43;;;3.13;;
5807;SDS011;2930;42.678;23.312;2022-09-25T06:03:28;4.13;;;3.20;;
5807;SDS011;2930;42.678;23.312;2022-09-25T06:05:55;2.90;;;2.70;;
5807;SDS011;2930;42.678;23.312;2022-09-25T06:08:22;2.57;;;2.43;;
5807;SDS011;2930;42.678;23.312;2022-09-25T06:10:52;3.10;;;2.83;;
5807;SDS011;2930;42.678;23.312;2022-09-25T06:13:21;2.20;;;2.10;;
5807;SDS011;2930;42.678;23.312;2022-09-25T06:15:49;5.27;;;3.03;;
5807;SDS011;2930;42.678;23.312;2022-09-25T06:18:17;2.83;;;2.63;;
5807;SDS011;2930;42.678;23.312;2022-09-25T06:20:46;3.57;;;3.27;;
5807;SDS011;2930;42.678;23.312;2022-09-25T06:23:13;2.85;;;2.65;;
5807;SDS011;2930;42.678;23.312;2022-09-25T06:25:39;2.90;;;2.70;;
5807;SDS011;2930;42.678;23.312;2022-09-25T06:28:05;3.00;;;2.85;;
5807;SDS011;2930;42.678;23.312;2022-09-25T06:30:32;3.22;;;3.00;;
5807;SDS011;2930;42.678;23.312;2022-09-25T06:33:00;2.38;;;2.28;;
5807;SDS011;2930;42.678;23.312;2022-09-25T06:35:31;3.28;;;2.50;;
5807;SDS011;2930;42.678;23.312;2022-09-25T06:37:58;2.63;;;2.42;;
5807;SDS011;2930;42.678;23.312;2022-09-25T06:40:26;2.40;;;2.30;;
5807;SDS011;2930;42.678;23.312;2022-09-25T06:42:56;3.17;;;2.88;;
5807;SDS011;2930;42.678;23.312;2022-09-25T06:45:23;3.25;;;2.95;;
5807;SDS011;2930;42.678;23.312;2022-09-25T06:47:51;3.22;;;3.03;;
5807;SDS011;2930;42.678;23.312;2022-09-25T06:50:22;3.17;;;2.88;;
5807;SDS011;2930;42.678;23.312;2022-09-25T06:52:50;3.92;;;3.17;;
5807;SDS011;2930;42.678;23.312;2022-09-25T06:55:16;2.75;;;2.60;;
5807;SDS011;2930;42.678;23.312;2022-09-25T06:57:44;3.80;;;3.60;;
5807;SDS011;2930;42.678;23.312;2022-09-25T07:00:10;3.20;;;2.90;;
5807;SDS011;2930;42.678;23.312;2022-09-25T07:02:36;3.75;;;3.30;;
5807;SDS011;2930;42.678;23.312;2022-09-25T07:05:20;3.28;;;3.08;;
5807;SDS011;2930;42.678;23.312;2022-09-25T07:07:46;3.33;;;3.05;;
5807;SDS011;2930;42.678;23.312;2022-09-25T07:10:12;4.13;;;3.67;;
5807;SDS011;2930;42.678;23.312;2022-09-25T07:12:40;3.90;;;3.63;;
5807;SDS011;2930;42.678;23.312;2022-09-25T07:15:06;3.88;;;3.58;;
5807;SDS011;2930;42.678;23.312;2022-09-25T07:17:32;3.67;;;3.35;;
5807;SDS011;2930;42.678;23.312;2022-09-25T07:19:58;4.15;;;3.85;;
5807;SDS011;2930;42.678;23.312;2022-09-25T07:22:25;4.22;;;3.92;;
5807;SDS011;2930;42.678;23.312;2022-09-25T07:24:50;6.07;;;4.10;;
5807;SDS011;2930;42.678;23.312;2022-09-25T07:27:16;3.30;;;3.10;;
5807;SDS011;2930;42.678;23.312;2022-09-25T07:29:42;3.88;;;3.50;;
5807;SDS011;2930;42.678;23.312;2022-09-25T07:32:07;3.45;;;3.17;;
5807;SDS011;2930;42.678;23.312;2022-09-25T07:34:34;3.55;;;3.22;;
5807;SDS011;2930;42.678;23.312;2022-09-25T07:37:01;4.30;;;3.22;;
5807;SDS011;2930;42.678;23.312;2022-09-25T07:39:27;3.45;;;3.20;;
5807;SDS011;2930;42.678;23.312;2022-09-25T07:41:53;3.80;;;3.60;;
5807;SDS011;2930;42.678;23.312;2022-09-25T07:44:19;3.42;;;3.22;;
5807;SDS011;2930;42.678;23.312;2022-09-25T07:46:45;4.57;;;4.15;;
5807;SDS011;2930;42.678;23.312;2022-09-25T07:49:11;3.58;;;3.28;;
5807;SDS011;2930;42.678;23.312;2022-09-25T07:51:37;4.78;;;4.05;;
5807;SDS011;2930;42.678;23.312;2022-09-25T07:54:03;3.63;;;3.33;;
5807;SDS011;2930;42.678;23.312;2022-09-25T07:56:29;5.10;;;3.70;;
5807;SDS011;2930;42.678;23.312;2022-09-25T07:58:55;3.63;;;3.33;;
5807;SDS011;2930;42.678;23.312;2022-09-25T08:01:20;3.83;;;3.55;;
5807;SDS011;2930;42.678;23.312;2022-09-25T08:03:46;3.55;;;3.33;;
5807;SDS011;2930;42.678;23.312;2022-09-25T08:06:13;3.25;;;3.05;;
5807;SDS011;2930;42.678;23.312;2022-09-25T08:08:39;3.30;;;3.10;;
5807;SDS011;2930;42.678;23.312;2022-09-25T08:11:07;3.72;;;3.42;;
5807;SDS011;2930;42.678;23.312;2022-09-25T08:13:35;3.08;;;2.88;;
5807;SDS011;2930;42.678;23.312;2022-09-25T08:16:06;3.03;;;2.83;;
5807;SDS011;2930;42.678;23.312;2022-09-25T08:18:37;3.38;;;3.17;;
5807;SDS011;2930;42.678;23.312;2022-09-25T08:21:06;3.72;;;3.53;;
5807;SDS011;2930;42.678;23.312;2022-09-25T08:23:32;3.80;;;3.60;;
5807;SDS011;2930;42.678;23.312;2022-09-25T08:25:59;3.53;;;3.28;;
5807;SDS011;2930;42.678;23.312;2022-09-25T08:28:26;2.92;;;2.83;;
5807;SDS011;2930;42.678;23.312;2022-09-25T08:30:52;3.83;;;3.13;;
5807;SDS011;2930;42.678;23.312;2022-09-25T08:33:18;2.97;;;2.88;;
5807;SDS011;2930;42.678;23.312;2022-09-25T08:35:52;3.35;;;3.15;;
5807;SDS011;2930;42.678;23.312;2022-09-25T08:38:20;4.15;;;3.90;;
5807;SDS011;2930;42.678;23.312;2022-09-25T08:40:50;3.58;;;3.40;;
5807;SDS011;2930;42.678;23.312;2022-09-25T08:43:21;3.67;;;3.47;;
5807;SDS011;2930;42.678;23.312;2022-09-25T08:45:49;3.25;;;3.15;;
5807;SDS011;2930;42.678;23.312;2022-09-25T08:51:30;3.67;;;3.47;;
5807;SDS011;2930;42.678;23.312;2022-09-25T08:54:02;3.60;;;3.30;;
5807;SDS011;2930;42.678;23.312;2022-09-25T08:56:28;3.13;;;2.92;;
5807;SDS011;2930;42.678;23.312;2022-09-25T09:04:45;2.80;;;2.60;;
5807;SDS011;2930;42.678;23.312;2022-09-25T09:10:34;2.88;;;2.78;;
5807;SDS011;2930;42.678;23.312;2022-09-25T09:13:24;3.00;;;2.80;;
5807;SDS011;2930;42.678;23.312;2022-09-25T09:18:40;3.00;;;2.90;;
5807;SDS011;2930;42.678;23.312;2022-09-25T09:24:15;2.67;;;2.33;;
5807;SDS011;2930;42.678;23.312;2022-09-25T09:32:19;2.30;;;2.20;;
5807;SDS011;2930;42.678;23.312;2022-09-25T09:43:39;2.03;;;2.00;;
5807;SDS011;2930;42.678;23.312;2022-09-25T09:46:25;2.20;;;2.10;;
5807;SDS011;2930;42.678;23.312;2022-09-25T09:57:09;1.98;;;1.98;;
5807;SDS011;2930;42.678;23.312;2022-09-25T10:00:11;2.47;;;2.47;;
5807;SDS011;2930;42.678;23.312;2022-09-25T10:03:01;2.08;;;2.08;;
5807;SDS011;2930;42.678;23.312;2022-09-25T10:05:55;2.38;;;2.28;;
5807;SDS011;2930;42.678;23.312;2022-09-25T10:08:24;1.67;;;1.63;;
5807;SDS011;2930;42.678;23.312;2022-09-25T10:10:50;1.88;;;1.88;;
5807;SDS011;2930;42.678;23.312;2022-09-25T10:13:26;2.35;;;1.98;;
5807;SDS011;2930;42.678;23.312;2022-09-25T10:18:28;2.50;;;1.83;;
5807;SDS011;2930;42.678;23.312;2022-09-25T10:21:14;1.70;;;1.70;;
5807;SDS011;2930;42.678;23.312;2022-09-25T10:28:59;2.13;;;2.03;;
5807;SDS011;2930;42.678;23.312;2022-09-25T10:31:31;1.52;;;1.50;;
5807;SDS011;2930;42.678;23.312;2022-09-25T10:36:30;2.05;;;1.95;;
5807;SDS011;2930;42.678;23.312;2022-09-25T10:38:58;1.60;;;1.60;;
5807;SDS011;2930;42.678;23.312;2022-09-25T10:41:26;1.73;;;1.70;;
5807;SDS011;2930;42.678;23.312;2022-09-25T10:46:31;2.00;;;1.95;;
5807;SDS011;2930;42.678;23.312;2022-09-25T10:49:18;1.60;;;1.60;;
5807;SDS011;2930;42.678;23.312;2022-09-25T10:52:08;1.92;;;1.88;;
5807;SDS011;2930;42.678;23.312;2022-09-25T10:54:35;1.75;;;1.75;;
5807;SDS011;2930;42.678;23.312;2022-09-25T10:57:12;3.85;;;1.65;;
5807;SDS011;2930;42.678;23.312;2022-09-25T10:59:44;2.60;;;1.65;;
5807;SDS011;2930;42.678;23.312;2022-09-25T11:02:17;1.73;;;1.60;;
5807;SDS011;2930;42.678;23.312;2022-09-25T11:04:55;2.03;;;1.92;;
5807;SDS011;2930;42.678;23.312;2022-09-25T11:07:21;1.75;;;1.75;;
5807;SDS011;2930;42.678;23.312;2022-09-25T11:09:51;1.80;;;1.77;;
5807;SDS011;2930;42.678;23.312;2022-09-25T11:12:23;1.55;;;1.55;;
5807;SDS011;2930;42.678;23.312;2022-09-25T11:14:53;1.60;;;1.60;;
5807;SDS011;2930;42.678;23.312;2022-09-25T11:17:37;1.48;;;1.38;;
5807;SDS011;2930;42.678;23.312;2022-09-25T11:26:05;1.65;;;1.58;;
5807;SDS011;2930;42.678;23.312;2022-09-25T11:28:51;1.35;;;1.35;;
5807;SDS011;2930;42.678;23.312;2022-09-25T11:37:17;1.45;;;1.45;;
5807;SDS011;2930;42.678;23.312;2022-09-25T11:43:07;1.40;;;1.30;;
5807;SDS011;2930;42.678;23.312;2022-09-25T11:45:39;1.52;;;1.42;;
5807;SDS011;2930;42.678;23.312;2022-09-25T11:50:58;1.42;;;1.42;;
5807;SDS011;2930;42.678;23.312;2022-09-25T11:59:15;1.13;;;1.13;;
5807;SDS011;2930;42.678;23.312;2022-09-25T12:01:57;4.43;;;1.38;;
5807;SDS011;2930;42.678;23.312;2022-09-25T12:21:42;1.38;;;1.38;;
5807;SDS011;2930;42.678;23.312;2022-09-25T12:24:31;1.25;;;1.25;;
5807;SDS011;2930;42.678;23.312;2022-09-25T12:27:26;1.30;;;1.08;;
5807;SDS011;2930;42.678;23.312;2022-09-25T12:41:33;1.52;;;1.42;;
5807;SDS011;2930;42.678;23.312;2022-09-25T12:46:54;1.48;;;1.38;;
5807;SDS011;2930;42.678;23.312;2022-09-25T12:49:38;1.30;;;1.30;;
5807;SDS011;2930;42.678;23.312;2022-09-25T12:52:11;1.40;;;1.30;;
5807;SDS011;2930;42.678;23.312;2022-09-25T12:55:05;1.35;;;1.33;;
5807;SDS011;2930;42.678;23.312;2022-09-25T12:57:44;1.08;;;1.08;;
5807;SDS011;2930;42.678;23.312;2022-09-25T13:00:32;1.20;;;1.20;;
5807;SDS011;2930;42.678;23.312;2022-09-25T13:03:14;0.93;;;0.93;;
5807;SDS011;2930;42.678;23.312;2022-09-25T13:09:05;2.53;;;1.10;;
5807;SDS011;2930;42.678;23.312;2022-09-25T13:14:23;1.30;;;1.30;;
5807;SDS011;2930;42.678;23.312;2022-09-25T13:16:56;1.08;;;1.08;;
5807;SDS011;2930;42.678;23.312;2022-09-25T13:22:02;1.00;;;1.00;;
5807;SDS011;2930;42.678;23.312;2022-09-25T13:24:36;1.30;;;0.80;;
5807;SDS011;2930;42.678;23.312;2022-09-25T13:27:23;1.15;;;1.15;;
5807;SDS011;2930;42.678;23.312;2022-09-25T13:29:51;1.27;;;1.17;;
5807;SDS011;2930;42.678;23.312;2022-09-25T13:32:25;1.52;;;1.27;;
5807;SDS011;2930;42.678;23.312;2022-09-25T13:35:02;1.55;;;1.40;;
5807;SDS011;2930;42.678;23.312;2022-09-25T13:37:32;1.30;;;1.30;;
5807;SDS011;2930;42.678;23.312;2022-09-25T13:39:59;2.38;;;1.30;;
5807;SDS011;2930;42.678;23.312;2022-09-25T13:42:52;1.45;;;1.20;;
5807;SDS011;2930;42.678;23.312;2022-09-25T13:45:31;1.10;;;1.10;;
5807;SDS011;2930;42.678;23.312;2022-09-25T13:48:02;1.00;;;1.00;;
5807;SDS011;2930;42.678;23.312;2022-09-25T13:50:34;0.90;;;0.90;;
5807;SDS011;2930;42.678;23.312;2022-09-25T13:58:20;1.40;;;0.90;;
5807;SDS011;2930;42.678;23.312;2022-09-25T14:03:28;1.02;;;1.00;;
5807;SDS011;2930;42.678;23.312;2022-09-25T14:06:01;1.95;;;1.00;;
5807;SDS011;2930;42.678;23.312;2022-09-25T14:08:29;1.75;;;1.17;;
5807;SDS011;2930;42.678;23.312;2022-09-25T14:10:57;1.00;;;1.00;;
5807;SDS011;2930;42.678;23.312;2022-09-25T14:13:26;0.80;;;0.80;;
5807;SDS011;2930;42.678;23.312;2022-09-25T14:15:53;1.15;;;1.15;;
5807;SDS011;2930;42.678;23.312;2022-09-25T14:18:24;0.68;;;0.68;;
5807;SDS011;2930;42.678;23.312;2022-09-25T14:21:01;1.00;;;1.00;;
5807;SDS011;2930;42.678;23.312;2022-09-25T14:23:30;1.05;;;1.05;;
5807;SDS011;2930;42.678;23.312;2022-09-25T14:25:58;1.60;;;1.30;;
5807;SDS011;2930;42.678;23.312;2022-09-25T14:28:31;0.90;;;0.90;;
5807;SDS011;2930;42.678;23.312;2022-09-25T14:47:57;2.15;;;1.05;;
5807;SDS011;2930;42.678;23.312;2022-09-25T14:50:25;1.45;;;1.00;;
5807;SDS011;2930;42.678;23.312;2022-09-25T14:52:56;3.25;;;0.90;;
5807;SDS011;2930;42.678;23.312;2022-09-25T14:55:27;0.90;;;0.90;;
5807;SDS011;2930;42.678;23.312;2022-09-25T14:58:01;1.17;;;1.17;;
5807;SDS011;2930;42.678;23.312;2022-09-25T15:00:29;1.48;;;0.82;;
5807;SDS011;2930;42.678;23.312;2022-09-25T15:02:55;1.30;;;1.17;;
5807;SDS011;2930;42.678;23.312;2022-09-25T15:07:51;1.27;;;1.27;;
5807;SDS011;2930;42.678;23.312;2022-09-25T15:10:28;2.80;;;1.38;;
5807;SDS011;2930;42.678;23.312;2022-09-25T15:15:31;1.77;;;0.95;;
5807;SDS011;2930;42.678;23.312;2022-09-25T15:17:58;0.70;;;0.70;;
5807;SDS011;2930;42.678;23.312;2022-09-25T15:20:35;1.08;;;1.08;;
5807;SDS011;2930;42.678;23.312;2022-09-25T15:23:13;0.75;;;0.75;;
5807;SDS011;2930;42.678;23.312;2022-09-25T15:25:42;0.60;;;0.60;;
5807;SDS011;2930;42.678;23.312;2022-09-25T15:28:13;0.98;;;0.98;;
5807;SDS011;2930;42.678;23.312;2022-09-25T15:30:42;0.90;;;0.90;;
5807;SDS011;2930;42.678;23.312;2022-09-25T15:33:32;1.27;;;1.27;;
5807;SDS011;2930;42.678;23.312;2022-09-25T15:36:12;1.48;;;1.38;;
5807;SDS011;2930;42.678;23.312;2022-09-25T15:38:52;2.92;;;1.60;;
5807;SDS011;2930;42.678;23.312;2022-09-25T15:41:20;1.25;;;1.10;;
5807;SDS011;2930;42.678;23.312;2022-09-25T15:43:48;1.23;;;1.23;;
5807;SDS011;2930;42.678;23.312;2022-09-25T15:49:06;2.28;;;1.15;;
5807;SDS011;2930;42.678;23.312;2022-09-25T15:51:32;1.10;;;1.10;;
5807;SDS011;2930;42.678;23.312;2022-09-25T15:54:00;1.08;;;1.08;;
5807;SDS011;2930;42.678;23.312;2022-09-25T15:56:30;0.65;;;0.65;;
5807;SDS011;2930;42.678;23.312;2022-09-25T15:59:17;0.70;;;0.70;;
5807;SDS011;2930;42.678;23.312;2022-09-25T16:01:47;1.38;;;1.17;;
5807;SDS011;2930;42.678;23.312;2022-09-25T16:04:32;1.92;;;0.90;;
5807;SDS011;2930;42.678;23.312;2022-09-25T16:09:55;0.88;;;0.88;;
5807;SDS011;2930;42.678;23.312;2022-09-25T16:15:02;1.05;;;1.05;;
5807;SDS011;2930;42.678;23.312;2022-09-25T16:17:55;0.82;;;0.82;;
5807;SDS011;2930;42.678;23.312;2022-09-25T16:23:18;1.05;;;1.02;;
5807;SDS011;2930;42.678;23.312;2022-09-25T16:25:52;1.48;;;1.02;;
5807;SDS011;2930;42.678;23.312;2022-09-25T16:28:21;1.00;;;1.00;;
5807;SDS011;2930;42.678;23.312;2022-09-25T16:31:07;1.00;;;1.00;;
5807;SDS011;2930;42.678;23.312;2022-09-25T16:33:38;1.55;;;0.90;;
5807;SDS011;2930;42.678;23.312;2022-09-25T16:36:07;1.00;;;1.00;;
5807;SDS011;2930;42.678;23.312;2022-09-25T16:38:39;1.00;;;1.00;;
5807;SDS011;2930;42.678;23.312;2022-09-25T16:41:17;0.90;;;0.90;;
5807;SDS011;2930;42.678;23.312;2022-09-25T16:43:46;0.90;;;0.90;;
5807;SDS011;2930;42.678;23.312;2022-09-25T16:46:26;0.80;;;0.80;;
5807;SDS011;2930;42.678;23.312;2022-09-25T16:48:58;1.00;;;1.00;;
5807;SDS011;2930;42.678;23.312;2022-09-25T16:51:25;1.08;;;1.08;;
5807;SDS011;2930;42.678;23.312;2022-09-25T16:53:52;1.60;;;1.58;;
5807;SDS011;2930;42.678;23.312;2022-09-25T16:56:22;1.50;;;1.40;;
5807;SDS011;2930;42.678;23.312;2022-09-25T16:58:57;1.42;;;1.42;;
5807;SDS011;2930;42.678;23.312;2022-09-25T17:01:24;1.27;;;1.27;;
5807;SDS011;2930;42.678;23.312;2022-09-25T17:03:51;1.25;;;1.08;;
5807;SDS011;2930;42.678;23.312;2022-09-25T17:06:20;1.30;;;1.20;;
5807;SDS011;2930;42.678;23.312;2022-09-25T17:08:48;1.35;;;1.17;;
5807;SDS011;2930;42.678;23.312;2022-09-25T17:11:14;1.10;;;1.10;;
5807;SDS011;2930;42.678;23.312;2022-09-25T17:13:42;1.30;;;1.30;;
5807;SDS011;2930;42.678;23.312;2022-09-25T17:16:12;1.10;;;1.10;;
5807;SDS011;2930;42.678;23.312;2022-09-25T17:21:11;1.48;;;1.48;;
5807;SDS011;2930;42.678;23.312;2022-09-25T17:23:39;1.25;;;1.20;;
5807;SDS011;2930;42.678;23.312;2022-09-25T17:26:20;1.58;;;1.58;;
5807;SDS011;2930;42.678;23.312;2022-09-25T17:28:48;0.88;;;0.88;;
5807;SDS011;2930;42.678;23.312;2022-09-25T17:31:17;1.77;;;1.35;;
5807;SDS011;2930;42.678;23.312;2022-09-25T17:33:45;6.53;;;1.30;;
5807;SDS011;2930;42.678;23.312;2022-09-25T17:36:13;1.35;;;1.30;;
5807;SDS011;2930;42.678;23.312;2022-09-25T17:38:40;1.35;;;1.25;;
5807;SDS011;2930;42.678;23.312;2022-09-25T17:41:10;2.05;;;1.20;;
5807;SDS011;2930;42.678;23.312;2022-09-25T17:43:36;1.75;;;1.30;;
5807;SDS011;2930;42.678;23.312;2022-09-25T17:46:07;2.25;;;1.25;;
5807;SDS011;2930;42.678;23.312;2022-09-25T17:48:33;1.10;;;1.10;;
5807;SDS011;2930;42.678;23.312;2022-09-25T17:51:01;1.20;;;1.20;;
5807;SDS011;2930;42.678;23.312;2022-09-25T17:53:33;3.72;;;1.75;;
5807;SDS011;2930;42.678;23.312;2022-09-25T17:55:59;1.33;;;1.25;;
5807;SDS011;2930;42.678;23.312;2022-09-25T17:58:26;2.33;;;1.23;;
5807;SDS011;2930;42.678;23.312;2022-09-25T18:00:53;1.08;;;1.08;;
5807;SDS011;2930;42.678;23.312;2022-09-25T18:03:21;3.03;;;1.15;;
5807;SDS011;2930;42.678;23.312;2022-09-25T18:05:47;1.45;;;1.35;;
5807;SDS011;2930;42.678;23.312;2022-09-25T18:08:13;1.27;;;1.27;;
5807;SDS011;2930;42.678;23.312;2022-09-25T18:10:39;1.08;;;1.05;;
5807;SDS011;2930;42.678;23.312;2022-09-25T18:13:06;2.25;;;1.20;;
5807;SDS011;2930;42.678;23.312;2022-09-25T18:15:37;0.93;;;0.93;;
5807;SDS011;2930;42.678;23.312;2022-09-25T18:18:09;1.85;;;1.60;;
5807;SDS011;2930;42.678;23.312;2022-09-25T18:20:35;1.83;;;1.60;;
5807;SDS011;2930;42.678;23.312;2022-09-25T18:23:19;2.30;;;2.20;;
5807;SDS011;2930;42.678;23.312;2022-09-25T18:25:45;2.42;;;2.28;;
5807;SDS011;2930;42.678;23.312;2022-09-25T18:28:11;1.80;;;1.80;;
5807;SDS011;2930;42.678;23.312;2022-09-25T18:30:36;2.00;;;1.90;;
5807;SDS011;2930;42.678;23.312;2022-09-25T18:33:02;1.58;;;1.58;;
5807;SDS011;2930;42.678;23.312;2022-09-25T18:35:28;1.88;;;1.85;;
5807;SDS011;2930;42.678;23.312;2022-09-25T18:37:56;2.60;;;1.60;;